Time;durP1;ratioP1;P1;durP2;ratioP2;P2;SDS_P1;SDS_P2;PMS_P1;PMS_P2;Temp;Humidity;BMP_temperature;BMP_pressure;BME280_temperature;BME280_humidity;BME280_pressure;Samples;Min_cycle;Max_cycle;Signal;HPM_P1;HPM_P2
2022/06/19 00:01:48;;;;;;;4.35;2.60;;;;;;;19.83;54.42;96807.84;9929361;29;20051;-53
2022/06/19 00:07:09;;;;;;;3.08;2.30;;;;;;;19.84;54.38;96804.06;9952709;29;20066;-54
2022/06/19 00:12:29;;;;;;;5.28;2.45;;;;;;;19.84;54.36;96795.16;9958098;29;20073;-51
2022/06/19 00:17:48;;;;;;;3.42;2.35;;;;;;;19.84;54.50;96793.25;9945571;29;20059;-51
2022/06/19 00:23:08;;;;;;;3.47;2.38;;;;;;;19.82;54.49;96779.25;9964518;29;20058;-53
2022/06/19 00:28:27;;;;;;;4.28;2.55;;;;;;;19.83;54.46;96772.72;9942828;29;20648;-54
2022/06/19 00:33:46;;;;;;;4.95;2.38;;;;;;;19.83;54.46;96759.19;9962188;29;20063;-51
2022/06/19 00:39:06;;;;;;;5.28;2.60;;;;;;;19.82;54.46;96752.22;9959561;29;20116;-53
2022/06/19 00:44:26;;;;;;;2.58;2.20;;;;;;;19.83;54.43;96751.09;9967458;29;20070;-54
2022/06/19 00:50:24;;;;;;;7.80;2.80;;;;;;;19.82;54.56;96738.72;9937843;29;20403;-51
2022/06/19 00:55:46;;;;;;;3.17;2.25;;;;;;;19.83;54.49;96736.78;9948456;29;20054;-54
2022/06/19 01:01:13;;;;;;;5.38;2.47;;;;;;;19.83;54.46;96725.97;9942038;29;20078;-54
2022/06/19 01:06:33;;;;;;;3.28;2.10;;;;;;;19.81;54.71;96728.22;9957608;29;20047;-51
2022/06/19 01:11:52;;;;;;;4.60;2.50;;;;;;;19.81;54.47;96731.69;9941580;29;20061;-53
2022/06/19 01:17:13;;;;;;;4.00;2.30;;;;;;;19.81;54.40;96723.59;9953026;29;20051;-54
2022/06/19 01:22:48;;;;;;;3.67;2.22;;;;;;;19.81;54.55;96722.81;9928167;29;20427;-53
2022/06/19 01:34:01;;;;;;;3.40;2.22;;;;;;;19.81;54.53;96707.38;9932729;29;20062;-54
2022/06/19 01:39:22;;;;;;;3.40;2.30;;;;;;;19.79;54.66;96698.81;9937936;29;20059;-53
2022/06/19 01:44:43;;;;;;;3.97;2.25;;;;;;;19.80;54.69;96705.81;9953962;29;20111;-52
2022/06/19 01:50:06;;;;;;;4.10;2.50;;;;;;;19.79;54.65;96709.63;9943932;29;20058;-52
2022/06/19 01:55:28;;;;;;;3.85;2.45;;;;;;;19.79;54.64;96704.22;9948970;29;20504;-53
2022/06/19 02:00:49;;;;;;;4.30;2.70;;;;;;;19.79;54.72;96703.41;9950504;29;20070;-53
2022/06/19 02:06:10;;;;;;;3.50;2.55;;;;;;;19.79;54.61;96704.22;9943961;29;20415;-53
2022/06/19 02:11:34;;;;;;;3.92;2.70;;;;;;;19.78;54.68;96713.44;9953852;29;20411;-53
2022/06/19 02:16:53;;;;;;;2.70;2.10;;;;;;;19.78;54.66;96716.16;9964187;29;20132;-53
2022/06/19 02:22:14;;;;;;;3.45;2.22;;;;;;;19.78;54.61;96718.03;9954491;29;20062;-52
2022/06/19 02:27:34;;;;;;;3.38;2.15;;;;;;;19.78;54.71;96708.03;9944999;29;20070;-53
2022/06/19 02:32:54;;;;;;;4.50;2.40;;;;;;;19.78;54.73;96708.03;9944940;29;20065;-53
2022/06/19 02:38:17;;;;;;;3.95;2.58;;;;;;;19.78;54.73;96697.22;9932009;29;20061;-53
2022/06/19 02:43:37;;;;;;;4.00;2.65;;;;;;;19.77;54.79;96681.34;9963695;29;20498;-54
2022/06/19 02:48:57;;;;;;;4.50;2.58;;;;;;;19.78;54.78;96674.78;9975098;29;20055;-53
2022/06/19 02:54:16;;;;;;;5.70;2.90;;;;;;;19.77;54.88;96674.00;9951671;29;20111;-54
2022/06/19 02:59:36;;;;;;;5.38;2.50;;;;;;;19.77;54.74;96674.00;9967297;29;20086;-54
2022/06/19 03:05:01;;;;;;;4.65;2.80;;;;;;;19.77;54.87;96663.19;9964555;29;20082;-53
2022/06/19 03:10:20;;;;;;;4.63;2.53;;;;;;;19.77;54.97;96665.91;9940387;29;20058;-53
2022/06/19 03:15:40;;;;;;;3.78;2.40;;;;;;;19.75;54.87;96663.53;9960896;29;20062;-53
2022/06/19 03:20:59;;;;;;;3.63;2.47;;;;;;;19.75;54.92;96655.41;9964121;29;20174;-54
2022/06/19 03:26:19;;;;;;;5.28;2.55;;;;;;;19.77;54.94;96648.91;9969447;29;20604;-53
2022/06/19 03:31:38;;;;;;;3.97;2.60;;;;;;;19.77;55.01;96651.59;9958681;29;20419;-51
2022/06/19 03:36:58;;;;;;;5.20;3.15;;;;;;;19.76;54.95;96645.41;9963590;29;20074;-53
2022/06/19 03:42:18;;;;;;;3.42;2.50;;;;;;;19.77;55.01;96648.91;9961374;29;20491;-53
2022/06/19 03:47:37;;;;;;;4.60;2.80;;;;;;;19.77;55.01;96643.50;9943607;29;20062;-53
2022/06/19 03:52:57;;;;;;;2.92;2.50;;;;;;;19.77;55.05;96633.47;9936971;29;20055;-53
2022/06/19 03:58:16;;;;;;;3.40;2.78;;;;;;;19.76;55.17;96626.50;9943923;29;20078;-52
2022/06/19 04:03:36;;;;;;;4.05;2.80;;;;;;;19.77;55.11;96625.34;9927933;29;20062;-52
2022/06/19 04:08:56;;;;;;;3.10;2.60;;;;;;;19.78;55.21;96621.53;9956252;29;20738;-53
2022/06/19 04:14:16;;;;;;;4.95;2.90;;;;;;;19.79;55.13;96611.53;9960599;29;20065;-54
2022/06/19 04:19:35;;;;;;;3.58;2.65;;;;;;;19.78;55.02;96613.44;9960482;29;20069;-53
2022/06/19 04:24:55;;;;;;;5.90;2.70;;;;;;;19.81;55.06;96620.09;9969801;29;20055;-53
2022/06/19 04:30:14;;;;;;;3.60;2.58;;;;;;;19.81;55.15;96626.28;9955471;29;20061;-53
2022/06/19 04:35:33;;;;;;;3.67;2.80;;;;;;;19.83;55.12;96618.63;9953296;29;20388;-53
2022/06/19 04:40:53;;;;;;;2.83;2.60;;;;;;;19.83;55.06;96621.34;9971191;29;20128;-54
2022/06/19 04:46:12;;;;;;;2.90;2.40;;;;;;;19.85;55.09;96616.38;9952587;29;20116;-53
2022/06/19 04:51:32;;;;;;;2.85;2.40;;;;;;;19.87;55.08;96614.13;9941483;29;20070;-54
2022/06/19 04:56:51;;;;;;;2.92;2.60;;;;;;;19.87;55.11;96613.34;9957618;29;20063;-54
2022/06/19 05:02:12;;;;;;;3.00;2.38;;;;;;;19.88;55.11;96612.25;9946811;29;20050;-54
2022/06/19 05:07:32;;;;;;;2.92;2.40;;;;;;;19.88;55.04;96615.72;9952363;29;20073;-51
2022/06/19 05:12:56;;;;;;;2.88;2.25;;;;;;;19.89;55.13;96606.50;9968429;29;20062;-52
2022/06/19 05:18:16;;;;;;;2.42;2.22;;;;;;;19.87;55.10;96603.31;9950568;29;20104;-53
2022/06/19 05:23:39;;;;;;;3.78;2.22;;;;;;;19.87;55.12;96597.91;9954312;29;20202;-53
2022/06/19 05:29:00;;;;;;;2.63;2.33;;;;;;;19.89;55.16;96605.69;9945307;29;20071;-52
2022/06/19 05:34:19;;;;;;;2.88;2.10;;;;;;;19.88;55.17;96599.50;9951859;29;20503;-52
2022/06/19 05:39:39;;;;;;;5.47;2.33;;;;;;;19.88;55.18;96596.03;9954015;29;20112;-54
2022/06/19 05:44:58;;;;;;;2.47;2.22;;;;;;;19.89;55.27;96589.47;9939500;29;20073;-52
2022/06/19 05:50:17;;;;;;;2.30;2.13;;;;;;;19.89;55.20;96573.25;9937908;29;20503;-53
2022/06/19 05:55:37;;;;;;;2.38;2.17;;;;;;;19.89;55.16;96567.84;9941643;29;20054;-54
2022/06/19 06:00:57;;;;;;;4.10;2.10;;;;;;;19.88;55.25;96561.66;9967059;29;20055;-51
2022/06/19 06:06:18;;;;;;;2.45;2.00;;;;;;;19.89;55.20;96546.22;9957653;29;20070;-54
2022/06/19 06:11:38;;;;;;;2.30;2.10;;;;;;;19.89;55.29;96530.78;9949293;29;20062;-51
2022/06/19 06:16:57;;;;;;;2.10;1.90;;;;;;;19.90;55.29;96531.59;9946508;29;20058;-52
2022/06/19 06:22:16;;;;;;;2.42;2.00;;;;;;;19.89;55.31;96530.78;9960679;29;20419;-53
2022/06/19 06:27:37;;;;;;;2.80;1.88;;;;;;;19.89;55.28;96536.19;9932638;29;20077;-53
2022/06/19 06:32:56;;;;;;;2.45;2.25;;;;;;;19.90;55.31;96531.59;9943394;29;20407;-51
2022/06/19 06:38:15;;;;;;;1.98;1.83;;;;;;;19.90;55.25;96532.38;9949268;29;20058;-54
2022/06/19 06:43:36;;;;;;;2.47;1.80;;;;;;;19.90;55.47;96540.50;9973842;29;20061;-53
2022/06/19 06:49:02;;;;;;;2.88;2.05;;;;;;;19.91;55.33;96533.94;9951717;29;20067;-53
2022/06/19 06:54:21;;;;;;;2.20;2.00;;;;;;;19.91;55.30;96536.66;9950221;29;20058;-54
2022/06/19 06:59:40;;;;;;;3.83;2.25;;;;;;;19.92;55.48;96527.44;9928588;29;20469;-53
2022/06/19 07:05:00;;;;;;;7.47;4.00;;;;;;;19.92;55.37;96530.13;9936609;29;20127;-51
2022/06/19 07:10:20;;;;;;;6.82;3.55;;;;;;;19.94;55.55;96522.50;9943155;29;20069;-51
2022/06/19 07:15:40;;;;;;;7.88;4.22;;;;;;;19.93;55.49;96526.31;9961880;29;20453;-52
2022/06/19 07:20:59;;;;;;;7.55;4.07;;;;;;;19.94;55.47;96517.06;9957489;29;20070;-52
2022/06/19 07:26:21;;;;;;;8.63;4.60;;;;;;;19.94;55.44;96517.06;9936244;29;20055;-52
2022/06/19 07:31:40;;;;;;;11.30;5.18;;;;;;;19.95;55.62;96507.03;9946437;29;20063;-52
2022/06/19 07:36:59;;;;;;;9.05;4.70;;;;;;;19.94;55.59;96522.50;9943667;29;20423;-49
2022/06/19 07:42:19;;;;;;;10.68;5.05;;;;;;;19.95;55.67;96521.38;9945928;29;20058;-52
2022/06/19 07:53:17;;;;;;;7.72;3.97;;;;;;;19.95;55.67;96488.94;9951620;29;20059;-52
2022/06/19 07:58:36;;;;;;;7.03;4.22;;;;;;;19.97;55.63;96483.16;9946335;29;20112;-52
2022/06/19 08:03:56;;;;;;;7.60;3.75;;;;;;;19.97;55.63;96468.88;9957024;29;20595;-52
2022/06/19 08:09:15;;;;;;;5.28;3.10;;;;;;;19.97;55.64;96469.66;9945176;29;20122;-51
2022/06/19 08:14:35;;;;;;;4.05;3.25;;;;;;;19.98;55.53;96462.34;9945110;29;20065;-52
2022/06/19 08:19:55;;;;;;;3.65;2.60;;;;;;;19.98;55.59;96449.63;9935682;29;20066;-52
2022/06/19 08:25:15;;;;;;;3.83;2.55;;;;;;;19.98;55.50;96438.00;9937513;29;20151;-49
2022/06/19 08:30:39;;;;;;;4.88;2.80;;;;;;;19.98;55.56;96424.50;9940027;29;20070;-52
2022/06/19 08:36:03;;;;;;;3.63;2.47;;;;;;;19.99;55.41;96434.16;9941814;29;20063;-51
2022/06/19 08:41:54;;;;;;;5.88;2.58;;;;;;;19.98;54.92;96421.78;9962762;29;20070;-52
2022/06/19 08:47:20;;;;;;;4.80;2.80;;;;;;;19.77;53.42;96408.34;9964013;29;20625;-52
2022/06/19 08:53:17;;;;;;;2.78;2.00;;;;;;;19.66;53.64;96414.16;9938613;29;20373;-52
2022/06/19 08:59:07;;;;;;;2.92;1.90;;;;;;;19.72;54.93;96380.41;9945592;29;20051;-52
2022/06/19 09:10:34;;;;;;;4.60;2.00;;;;;;;19.67;54.20;96396.03;9950420;29;20063;-51
2022/06/19 09:16:05;;;;;;;2.15;1.45;;;;;;;19.73;53.27;96389.31;9925487;29;20571;-52
2022/06/19 09:21:33;;;;;;;2.55;1.50;;;;;;;19.63;52.89;96385.09;9948132;29;20065;-51
2022/06/19 09:27:00;;;;;;;4.45;1.70;;;;;;;19.69;53.75;96374.84;9931300;29;20055;-52
2022/06/19 09:32:34;;;;;;;2.77;1.53;;;;;;;19.60;50.75;96366.03;9958905;29;20051;-51
2022/06/19 09:37:57;;;;;;;3.10;1.60;;;;;;;19.65;52.96;96352.31;9912721;29;20499;-52
2022/06/19 09:43:35;;;;;;;4.50;1.60;;;;;;;19.69;51.51;96345.13;9925858;29;20055;-52
2022/06/19 09:49:00;;;;;;;2.47;1.50;;;;;;;19.62;51.89;96342.19;9936090;29;20070;-52
2022/06/19 09:54:42;;;;;;;1.60;1.30;;;;;;;19.66;52.71;96348.47;9908816;29;20066;-52
2022/06/19 10:00:12;;;;;;;1.88;1.20;;;;;;;19.60;50.35;96352.53;9908626;29;20067;-52
2022/06/19 10:05:46;;;;;;;2.38;1.33;;;;;;;19.61;52.42;96360.31;9916749;29;20065;-50
2022/06/19 10:11:08;;;;;;;2.70;1.35;;;;;;;19.62;50.82;96366.50;9947171;29;20059;-49
2022/06/19 10:16:44;;;;;;;3.50;1.40;;;;;;;19.54;51.14;96351.97;9928558;29;20124;-52
2022/06/19 10:22:37;;;;;;;2.45;1.20;;;;;;;19.61;51.96;96346.81;9924310;29;20058;-49
2022/06/19 10:28:32;;;;;;;3.15;1.70;;;;;;;19.55;49.57;96335.41;9931675;29;20587;-52
2022/06/19 10:34:26;;;;;;;2.10;1.17;;;;;;;19.58;51.64;96316.94;9959952;29;20059;-52
2022/06/19 10:40:02;;;;;;;2.35;1.23;;;;;;;19.63;51.07;96316.75;9902241;29;20063;-52
2022/06/19 10:45:33;;;;;;;1.73;1.30;;;;;;;19.53;50.89;96316.06;9951642;29;20061;-49
2022/06/19 10:51:03;;;;;;;3.42;1.40;;;;;;;19.59;51.51;96315.84;9929490;29;20120;-52
2022/06/19 10:57:04;;;;;;;3.42;1.35;;;;;;;19.50;50.34;96303.22;9934433;29;20051;-52
2022/06/19 11:08:08;;;;;;;3.83;1.50;;;;;;;19.51;49.54;96291.28;9928038;29;20074;-49
2022/06/19 11:14:02;;;;;;;3.67;1.55;;;;;;;19.53;51.23;96267.41;9945985;29;20051;-51
2022/06/19 11:19:45;;;;;;;3.50;1.38;;;;;;;19.59;50.84;96259.88;9936215;29;20074;-49
2022/06/19 11:25:20;;;;;;;2.42;1.40;;;;;;;19.52;51.12;96246.13;9927203;29;20055;-49
2022/06/19 11:30:47;;;;;;;5.32;1.20;;;;;;;19.58;51.32;96233.19;9945907;29;20066;-51
2022/06/19 11:36:08;;;;;;;5.40;1.55;;;;;;;19.48;50.54;96235.25;9932342;29;20058;-51
2022/06/19 11:41:32;;;;;;;3.80;1.52;;;;;;;19.53;51.32;96240.41;9940166;29;20066;-52
2022/06/19 11:46:56;;;;;;;3.85;1.52;;;;;;;19.52;50.18;96241.53;9935853;29;20067;-49
2022/06/19 11:52:18;;;;;;;2.90;1.30;;;;;;;19.51;51.34;96225.66;9932362;29;20066;-51
2022/06/19 11:57:37;;;;;;;4.38;1.38;;;;;;;19.57;51.26;96224.31;9931506;29;20043;-52
2022/06/19 12:03:19;;;;;;;5.07;1.20;;;;;;;19.47;51.07;96217.44;9920691;29;20067;-52
2022/06/19 12:09:01;;;;;;;1.73;1.17;;;;;;;19.54;51.81;96223.09;9913614;29;20119;-52
2022/06/19 12:14:32;;;;;;;3.95;1.40;;;;;;;19.45;50.74;96214.28;9931632;29;20055;-49
2022/06/19 12:19:53;;;;;;;2.60;1.30;;;;;;;19.50;51.67;96216.78;9939323;29;20119;-52
2022/06/19 12:25:24;;;;;;;4.65;1.38;;;;;;;19.45;50.66;96213.50;9916515;29;20112;-50
2022/06/19 12:31:08;;;;;;;4.00;1.38;;;;;;;19.49;51.69;96209.00;9939805;29;20112;-52
2022/06/19 12:36:32;;;;;;;2.78;1.30;;;;;;;19.45;50.44;96206.19;9927550;29;20055;-51
2022/06/19 12:42:12;;;;;;;2.78;1.35;;;;;;;19.48;51.58;96197.41;9932940;29;20066;-49
2022/06/19 12:47:36;;;;;;;2.30;1.37;;;;;;;19.42;50.27;96197.97;9927898;29;20093;-51
2022/06/19 12:52:58;;;;;;;3.28;1.40;;;;;;;19.46;51.55;96194.25;9952323;29;20484;-51
2022/06/19 12:58:23;;;;;;;3.90;1.42;;;;;;;19.42;50.26;96192.56;9951942;29;20059;-49
2022/06/19 13:04:11;;;;;;;3.05;1.20;;;;;;;19.45;51.61;96181.88;9942205;29;20059;-52
2022/06/19 13:09:50;;;;;;;3.05;1.30;;;;;;;19.43;50.05;96162.53;9944462;29;20065;-52
2022/06/19 13:15:40;;;;;;;3.92;1.40;;;;;;;19.45;51.52;96168.38;9943772;29;20066;-52
2022/06/19 13:21:35;;;;;;;4.13;1.35;;;;;;;19.44;50.58;96152.50;9947994;29;20533;-52
2022/06/19 13:27:12;;;;;;;4.18;1.67;;;;;;;19.39;50.54;96145.41;9852159;29;20372;-49
2022/06/19 13:32:53;;;;;;;3.58;1.38;;;;;;;19.40;51.52;96141.56;9952871;29;20054;-49
2022/06/19 13:38:44;;;;;;;6.55;1.70;;;;;;;19.40;49.46;96130.78;9949476;29;20074;-52
2022/06/19 13:44:15;;;;;;;2.20;1.48;;;;;;;19.40;51.26;96121.88;9933311;29;20059;-52
2022/06/19 13:49:43;;;;;;;3.33;1.33;;;;;;;19.43;50.58;96124.69;9930895;29;20074;-52
2022/06/19 13:55:27;;;;;;;3.00;1.57;;;;;;;19.40;51.19;96125.38;9933026;29;20066;-49
2022/06/19 14:00:56;;;;;;;2.10;1.27;;;;;;;19.43;50.26;96108.50;9932156;29;20131;-52
2022/06/19 14:06:31;;;;;;;3.47;1.30;;;;;;;19.35;50.89;96107.50;9939094;29;20058;-51
2022/06/19 14:12:03;;;;;;;4.03;1.70;;;;;;;19.41;51.32;96094.53;9917342;29;20073;-51
2022/06/19 14:17:31;;;;;;;7.18;1.45;;;;;;;19.34;51.17;96099.72;9923192;29;20059;-50
2022/06/19 14:23:17;;;;;;;5.22;1.50;;;;;;;19.40;51.68;96102.97;9906420;29;20055;-49
2022/06/19 14:28:55;;;;;;;3.17;1.42;;;;;;;19.38;50.02;96110.63;9930857;29;20074;-51
2022/06/19 14:34:43;;;;;;;3.85;1.45;;;;;;;19.38;50.90;96089.81;9920302;29;20059;-49
2022/06/19 14:40:23;;;;;;;3.72;1.50;;;;;;;19.35;52.13;96085.09;9932640;29;20058;-52
2022/06/19 14:45:48;;;;;;;6.53;1.70;;;;;;;19.39;50.96;96079.81;9925313;29;20065;-51
2022/06/19 14:51:31;;;;;;;3.63;1.60;;;;;;;19.36;52.27;96082.03;9962279;29;20110;-51
2022/06/19 14:57:02;;;;;;;4.57;1.70;;;;;;;19.38;51.23;96078.22;9962347;29;20127;-52
2022/06/19 15:02:26;;;;;;;4.10;1.95;;;;;;;19.34;52.33;96075.41;9945208;29;20062;-52
2022/06/19 15:07:46;;;;;;;4.57;2.00;;;;;;;19.28;51.10;96074.06;9953106;29;20116;-50
2022/06/19 15:13:20;;;;;;;5.70;1.92;;;;;;;19.32;52.99;96080.38;9960901;29;20055;-50
2022/06/19 15:18:52;;;;;;;5.68;1.77;;;;;;;19.30;51.55;96074.53;9948408;29;20605;-49
2022/06/19 15:24:25;;;;;;;3.42;1.60;;;;;;;19.34;53.31;96059.22;9934149;29;20062;-52
2022/06/19 15:30:23;;;;;;;5.40;2.15;;;;;;;19.29;52.97;96054.06;9930494;29;20142;-51
2022/06/19 15:35:59;;;;;;;4.38;1.63;;;;;;;19.28;52.02;96049.78;9944284;29;20484;-52
2022/06/19 15:41:44;;;;;;;3.05;1.77;;;;;;;19.34;53.53;96048.41;9932406;29;20106;-51
2022/06/19 15:47:07;;;;;;;7.53;2.17;;;;;;;19.28;52.00;96041.66;9953318;29;20055;-50
2022/06/19 15:52:35;;;;;;;4.20;1.60;;;;;;;19.34;53.49;96035.69;9938896;29;20055;-52
2022/06/19 15:58:02;;;;;;;6.38;1.90;;;;;;;19.30;51.46;96039.41;9936708;29;20054;-51
2022/06/19 16:03:27;;;;;;;5.88;2.00;;;;;;;19.26;52.91;96049.31;9936576;29;20059;-52
2022/06/19 16:08:57;;;;;;;5.22;2.22;;;;;;;19.31;52.60;96049.88;9941438;29;20122;-52
2022/06/19 16:14:20;;;;;;;5.97;2.13;;;;;;;19.28;52.89;96041.66;9935293;29;20055;-52
2022/06/19 16:19:41;;;;;;;5.80;1.98;;;;;;;19.34;53.40;96040.31;9948967;29;20067;-52
2022/06/19 16:25:04;;;;;;;5.43;2.08;;;;;;;19.25;51.58;96040.44;9944861;29;20051;-52
2022/06/19 16:30:32;;;;;;;4.03;1.95;;;;;;;19.30;53.66;96040.19;9934514;29;20067;-51
2022/06/19 16:47:23;;;;;;;6.57;1.88;;;;;;;19.35;53.40;96050.00;9968683;29;20067;-51
2022/06/19 16:52:47;;;;;;;4.22;1.95;;;;;;;19.29;53.10;96038.63;9948156;29;20059;-50
2022/06/19 16:58:15;;;;;;;5.60;2.03;;;;;;;19.36;53.76;96048.84;9961201;29;20062;-51
2022/06/19 17:03:44;;;;;;;6.93;2.45;;;;;;;19.25;51.55;96047.75;9954973;29;20546;-51
2022/06/19 17:09:11;;;;;;;4.80;2.10;;;;;;;19.32;53.45;96050.66;9961106;29;20058;-51
2022/06/19 17:14:37;;;;;;;4.18;2.30;;;;;;;19.31;52.96;96049.88;9975665;29;20122;-50
2022/06/19 17:20:03;;;;;;;3.38;1.65;;;;;;;19.31;53.83;96052.59;9928194;29;20620;-49
2022/06/19 17:25:25;;;;;;;3.63;1.90;;;;;;;19.30;52.98;96051.00;9946424;29;20054;-52
2022/06/19 17:31:03;;;;;;;4.20;2.10;;;;;;;19.30;54.02;96052.91;9946827;29;20063;-49
2022/06/19 17:36:27;;;;;;;6.40;2.25;;;;;;;19.32;53.58;96056.06;9949440;29;20050;-51
2022/06/19 17:41:47;;;;;;;6.38;2.10;;;;;;;19.28;53.52;96055.16;9939927;29;20070;-50
2022/06/19 17:47:11;;;;;;;4.30;2.15;;;;;;;19.34;53.81;96056.50;9958089;29;20066;-49
2022/06/19 17:52:31;;;;;;;5.20;1.88;;;;;;;19.28;53.08;96041.66;9956993;29;20050;-51
2022/06/19 17:58:05;;;;;;;4.53;2.53;;;;;;;19.32;54.15;96048.75;9946072;29;20093;-51
2022/06/19 18:03:29;;;;;;;4.55;1.95;;;;;;;19.32;53.59;96053.38;9970002;29;20050;-51
2022/06/19 18:08:50;;;;;;;4.32;2.10;;;;;;;19.31;54.21;96054.50;9953072;29;20066;-50
2022/06/19 18:14:12;;;;;;;4.38;2.13;;;;;;;19.34;54.20;96061.91;9965847;29;20522;-52
2022/06/19 18:19:32;;;;;;;4.28;2.28;;;;;;;19.32;54.38;96069.56;9941835;29;20515;-52
2022/06/19 18:24:51;;;;;;;5.00;2.33;;;;;;;19.35;54.20;96071.59;9946549;29;20471;-51
2022/06/19 18:30:14;;;;;;;3.92;2.10;;;;;;;19.31;54.44;96063.38;9947253;29;20069;-52
2022/06/19 18:35:34;;;;;;;5.03;2.58;;;;;;;19.36;54.48;96078.56;9963917;29;20073;-52
2022/06/19 18:40:53;;;;;;;5.25;2.47;;;;;;;19.34;54.08;96083.50;9963544;29;20511;-51
2022/06/19 18:46:13;;;;;;;4.22;2.30;;;;;;;19.32;54.81;96086.53;9939036;29;20629;-49
2022/06/19 18:51:32;;;;;;;4.07;2.30;;;;;;;19.36;54.83;96089.34;9964128;29;20515;-52
2022/06/19 18:56:51;;;;;;;5.32;2.65;;;;;;;19.32;54.85;96093.88;9974699;29;20116;-51
2022/06/19 19:02:12;;;;;;;3.35;2.20;;;;;;;19.34;55.06;96105.13;9954546;29;20054;-49
2022/06/19 19:07:31;;;;;;;5.20;2.67;;;;;;;19.36;54.36;96102.88;9945485;29;20058;-52
2022/06/19 19:12:51;;;;;;;4.60;2.35;;;;;;;19.30;54.64;96120.44;9946636;29;20070;-52
2022/06/19 19:18:12;;;;;;;3.95;2.38;;;;;;;19.34;55.12;96122.09;9920684;29;20062;-51
2022/06/19 19:23:31;;;;;;;3.00;2.05;;;;;;;19.39;55.34;96129.22;9948307;29;20410;-51
2022/06/19 19:28:57;;;;;;;5.78;2.42;;;;;;;19.38;54.74;96127.63;9949394;29;20127;-50
2022/06/19 19:34:17;;;;;;;3.80;2.30;;;;;;;19.41;54.74;96134.28;9966612;29;20054;-52
2022/06/19 19:39:37;;;;;;;4.57;2.20;;;;;;;19.45;54.80;96135.16;9955498;29;20477;-49
2022/06/19 19:44:56;;;;;;;4.78;2.28;;;;;;;19.47;54.85;96146.44;9929349;29;20522;-47
2022/06/19 19:50:20;;;;;;;4.95;2.40;;;;;;;19.49;54.68;96142.25;9919762;29;20797;-49
2022/06/19 19:55:39;;;;;;;5.85;2.15;;;;;;;19.50;54.54;96145.72;9947285;29;20062;-52
2022/06/19 20:00:59;;;;;;;4.32;1.83;;;;;;;19.51;54.19;96140.00;9957456;29;20066;-49
2022/06/19 20:11:57;;;;;;;4.47;1.88;;;;;;;19.53;54.96;96145.06;9940115;29;20077;-52
2022/06/19 20:17:16;;;;;;;3.75;1.92;;;;;;;19.52;54.95;96141.59;9939000;29;20063;-51
2022/06/19 20:22:40;;;;;;;2.22;1.98;;;;;;;19.53;54.88;96151.25;9951569;29;20084;-52
2022/06/19 20:28:08;;;;;;;4.50;2.22;;;;;;;19.55;54.70;96149.00;9943049;29;20062;-51
2022/06/19 20:33:32;;;;;;;2.25;1.90;;;;;;;19.54;54.56;96144.72;9939382;29;20078;-52
2022/06/19 20:38:52;;;;;;;4.72;2.03;;;;;;;19.54;54.09;96142.03;9931118;29;20515;-52
2022/06/19 20:44:17;;;;;;;3.70;1.85;;;;;;;19.56;53.84;96149.78;9952827;29;20559;-51
2022/06/19 20:49:41;;;;;;;2.67;1.83;;;;;;;19.56;53.73;96137.06;9944094;29;20477;-52
2022/06/19 20:55:11;;;;;;;4.85;2.05;;;;;;;19.57;53.52;96143.25;9942130;29;20059;-50
2022/06/19 21:00:36;;;;;;;7.45;2.60;;;;;;;19.58;53.38;96139.41;9903768;29;20067;-51
2022/06/19 21:05:55;;;;;;;3.20;1.63;;;;;;;19.58;53.44;96141.34;9935584;29;20054;-49
2022/06/19 21:11:15;;;;;;;3.30;1.90;;;;;;;19.58;53.43;96136.72;9929195;29;20059;-53
2022/06/19 21:16:37;;;;;;;3.97;1.33;;;;;;;19.60;53.59;96141.78;9907791;29;20413;-52
2022/06/19 21:21:57;;;;;;;2.47;1.50;;;;;;;19.60;53.10;96130.97;9912204;29;20507;-52
2022/06/19 21:27:16;;;;;;;5.00;1.88;;;;;;;19.57;52.82;96148.66;9934259;29;20087;-50
2022/06/19 21:32:36;;;;;;;2.08;1.83;;;;;;;19.57;53.09;96162.16;9924140;29;20081;-50
2022/06/19 21:37:59;;;;;;;2.10;1.70;;;;;;;19.58;53.16;96179.94;9917884;29;20054;-51
2022/06/19 21:43:21;;;;;;;1.90;1.70;;;;;;;19.59;53.16;96196.97;9927146;29;20079;-52
2022/06/19 21:48:41;;;;;;;3.35;1.80;;;;;;;19.60;53.30;96177.72;9922205;29;20459;-50
2022/06/19 21:54:02;;;;;;;2.70;1.58;;;;;;;19.61;53.33;96176.56;9911506;29;20423;-51
2022/06/19 21:59:22;;;;;;;2.60;1.75;;;;;;;19.62;53.37;96180.06;9922802;29;20580;-52
2022/06/19 22:04:41;;;;;;;3.65;1.65;;;;;;;19.61;53.43;96176.56;9908590;29;20507;-51
2022/06/19 22:15:39;;;;;;;1.55;1.40;;;;;;;19.62;53.76;96185.47;9947864;29;20061;-51
2022/06/19 22:20:58;;;;;;;3.38;1.60;;;;;;;19.63;53.82;96187.03;9960140;29;20070;-51
2022/06/19 22:26:21;;;;;;;3.15;1.90;;;;;;;19.63;53.89;96189.75;9955117;29;20111;-51
2022/06/19 22:31:40;;;;;;;2.70;1.67;;;;;;;19.64;53.96;96183.19;9924227;29;20088;-51
2022/06/19 22:37:00;;;;;;;3.42;1.77;;;;;;;19.65;54.09;96192.91;9941588;29;20574;-50
2022/06/19 22:42:20;;;;;;;4.10;2.05;;;;;;;19.64;54.13;96194.81;9920576;29;20093;-50
2022/06/19 22:47:40;;;;;;;2.20;1.80;;;;;;;19.65;54.14;96184.78;9941912;29;20065;-52
2022/06/19 22:52:59;;;;;;;3.00;1.80;;;;;;;19.65;54.24;96190.97;9931721;29;20127;-52
2022/06/19 23:04:00;;;;;;;3.80;1.80;;;;;;;19.65;54.29;96180.16;9941235;29;20128;-50
2022/06/19 23:09:23;;;;;;;2.78;1.70;;;;;;;19.65;54.40;96168.56;9963472;29;20059;-51
2022/06/19 23:14:42;;;;;;;2.10;1.52;;;;;;;19.65;54.36;96163.19;9954913;29;20075;-50
2022/06/19 23:20:03;;;;;;;3.75;1.95;;;;;;;19.67;54.41;96163.63;9910743;29;1150801;-52
2022/06/19 23:25:23;;;;;;;4.00;1.75;;;;;;;19.66;54.33;96168.25;9944021;29;20055;-52
2022/06/19 23:30:47;;;;;;;2.83;1.80;;;;;;;19.67;54.55;96160.91;9957555;29;20047;-50
2022/06/19 23:36:13;;;;;;;2.80;1.85;;;;;;;19.67;54.53;96160.91;9953898;29;20067;-52
2022/06/19 23:41:32;;;;;;;3.35;1.80;;;;;;;19.67;54.56;96160.91;9949322;29;20061;-49
2022/06/19 23:46:52;;;;;;;3.13;1.65;;;;;;;19.66;54.67;96165.53;9929571;29;20476;-50
2022/06/19 23:52:12;;;;;;;2.67;1.50;;;;;;;19.68;54.64;96157.88;9942365;29;20054;-49
2022/06/19 23:57:34;;;;;;;2.00;1.80;;;;;;;19.68;54.62;96148.97;9943519;29;20494;-52
